sensor_id;sensor_type;location;lat;lon;timestamp;P1;durP1;ratioP1;P2;durP2;ratioP2
17079;SDS011;8655;57.106;-2.088;2023-04-15T00:01:24;1.70;;;1.10;;
17079;SDS011;8655;57.106;-2.088;2023-04-15T00:03:50;2.37;;;1.20;;
17079;SDS011;8655;57.106;-2.088;2023-04-15T00:06:17;2.33;;;1.30;;
17079;SDS011;8655;57.106;-2.088;2023-04-15T00:08:46;3.97;;;1.40;;
17079;SDS011;8655;57.106;-2.088;2023-04-15T00:11:13;2.13;;;1.20;;
17079;SDS011;8655;57.106;-2.088;2023-04-15T00:13:39;2.40;;;1.30;;
17079;SDS011;8655;57.106;-2.088;2023-04-15T00:16:05;2.57;;;1.10;;
17079;SDS011;8655;57.106;-2.088;2023-04-15T00:18:33;2.77;;;1.37;;
17079;SDS011;8655;57.106;-2.088;2023-04-15T00:20:59;3.77;;;1.37;;
17079;SDS011;8655;57.106;-2.088;2023-04-15T00:23:25;1.47;;;1.20;;
17079;SDS011;8655;57.106;-2.088;2023-04-15T00:25:51;2.07;;;1.40;;
17079;SDS011;8655;57.106;-2.088;2023-04-15T00:28:17;2.80;;;1.40;;
17079;SDS011;8655;57.106;-2.088;2023-04-15T00:30:43;2.17;;;1.27;;
17079;SDS011;8655;57.106;-2.088;2023-04-15T00:33:09;3.00;;;1.50;;
17079;SDS011;8655;57.106;-2.088;2023-04-15T00:35:35;2.90;;;1.43;;
17079;SDS011;8655;57.106;-2.088;2023-04-15T00:38:01;2.13;;;1.10;;
17079;SDS011;8655;57.106;-2.088;2023-04-15T00:40:28;1.93;;;1.30;;
17079;SDS011;8655;57.106;-2.088;2023-04-15T00:42:54;1.70;;;1.17;;
17079;SDS011;8655;57.106;-2.088;2023-04-15T00:45:20;1.93;;;1.07;;
17079;SDS011;8655;57.106;-2.088;2023-04-15T00:47:46;2.70;;;1.30;;
17079;SDS011;8655;57.106;-2.088;2023-04-15T00:50:12;3.17;;;1.33;;
17079;SDS011;8655;57.106;-2.088;2023-04-15T00:52:38;2.13;;;1.13;;
17079;SDS011;8655;57.106;-2.088;2023-04-15T00:55:04;3.23;;;1.30;;
17079;SDS011;8655;57.106;-2.088;2023-04-15T00:57:31;2.07;;;1.30;;
17079;SDS011;8655;57.106;-2.088;2023-04-15T00:59:57;2.97;;;1.13;;
17079;SDS011;8655;57.106;-2.088;2023-04-15T01:02:23;2.53;;;1.20;;
17079;SDS011;8655;57.106;-2.088;2023-04-15T01:04:49;2.10;;;1.10;;
17079;SDS011;8655;57.106;-2.088;2023-04-15T01:07:14;2.23;;;1.27;;
17079;SDS011;8655;57.106;-2.088;2023-04-15T01:09:41;2.67;;;1.27;;
17079;SDS011;8655;57.106;-2.088;2023-04-15T01:12:08;2.20;;;1.50;;
17079;SDS011;8655;57.106;-2.088;2023-04-15T01:14:36;3.13;;;1.27;;
17079;SDS011;8655;57.106;-2.088;2023-04-15T01:17:01;1.67;;;1.10;;
17079;SDS011;8655;57.106;-2.088;2023-04-15T01:19:27;1.50;;;1.20;;
17079;SDS011;8655;57.106;-2.088;2023-04-15T01:21:53;2.30;;;1.30;;
17079;SDS011;8655;57.106;-2.088;2023-04-15T01:24:19;2.50;;;1.27;;
17079;SDS011;8655;57.106;-2.088;2023-04-15T01:26:45;2.03;;;1.20;;
17079;SDS011;8655;57.106;-2.088;2023-04-15T01:29:11;1.87;;;1.27;;
17079;SDS011;8655;57.106;-2.088;2023-04-15T01:31:37;2.63;;;1.40;;
17079;SDS011;8655;57.106;-2.088;2023-04-15T01:34:03;2.50;;;1.50;;
17079;SDS011;8655;57.106;-2.088;2023-04-15T01:36:29;1.93;;;1.40;;
17079;SDS011;8655;57.106;-2.088;2023-04-15T01:38:55;2.63;;;1.50;;
17079;SDS011;8655;57.106;-2.088;2023-04-15T01:41:25;2.33;;;1.23;;
17079;SDS011;8655;57.106;-2.088;2023-04-15T01:43:51;2.20;;;1.30;;
17079;SDS011;8655;57.106;-2.088;2023-04-15T01:46:17;2.17;;;1.30;;
17079;SDS011;8655;57.106;-2.088;2023-04-15T01:48:43;2.67;;;1.40;;
17079;SDS011;8655;57.106;-2.088;2023-04-15T01:51:09;1.80;;;1.40;;
17079;SDS011;8655;57.106;-2.088;2023-04-15T01:53:35;3.33;;;1.50;;
17079;SDS011;8655;57.106;-2.088;2023-04-15T01:56:01;1.77;;;1.10;;
17079;SDS011;8655;57.106;-2.088;2023-04-15T01:58:26;3.07;;;1.40;;
17079;SDS011;8655;57.106;-2.088;2023-04-15T02:00:52;2.43;;;1.20;;
17079;SDS011;8655;57.106;-2.088;2023-04-15T02:03:18;2.27;;;1.20;;
17079;SDS011;8655;57.106;-2.088;2023-04-15T02:05:43;2.33;;;1.40;;
17079;SDS011;8655;57.106;-2.088;2023-04-15T02:08:09;2.53;;;1.37;;
17079;SDS011;8655;57.106;-2.088;2023-04-15T02:10:35;2.23;;;1.40;;
17079;SDS011;8655;57.106;-2.088;2023-04-15T02:13:00;1.97;;;1.30;;
17079;SDS011;8655;57.106;-2.088;2023-04-15T02:15:26;1.47;;;1.20;;
17079;SDS011;8655;57.106;-2.088;2023-04-15T02:17:52;2.97;;;1.30;;
17079;SDS011;8655;57.106;-2.088;2023-04-15T02:20:19;2.73;;;1.30;;
17079;SDS011;8655;57.106;-2.088;2023-04-15T02:22:45;3.43;;;1.40;;
17079;SDS011;8655;57.106;-2.088;2023-04-15T02:25:12;2.60;;;1.43;;
17079;SDS011;8655;57.106;-2.088;2023-04-15T02:27:38;2.90;;;1.47;;
17079;SDS011;8655;57.106;-2.088;2023-04-15T02:30:04;2.00;;;1.20;;
17079;SDS011;8655;57.106;-2.088;2023-04-15T02:32:33;2.37;;;1.50;;
17079;SDS011;8655;57.106;-2.088;2023-04-15T02:35:02;2.87;;;1.60;;
17079;SDS011;8655;57.106;-2.088;2023-04-15T02:37:29;2.80;;;1.47;;
17079;SDS011;8655;57.106;-2.088;2023-04-15T02:39:56;2.30;;;1.40;;
17079;SDS011;8655;57.106;-2.088;2023-04-15T02:42:21;2.80;;;1.57;;
17079;SDS011;8655;57.106;-2.088;2023-04-15T02:44:47;2.47;;;1.40;;
17079;SDS011;8655;57.106;-2.088;2023-04-15T02:47:12;2.83;;;1.50;;
17079;SDS011;8655;57.106;-2.088;2023-04-15T02:49:39;2.20;;;1.40;;
17079;SDS011;8655;57.106;-2.088;2023-04-15T02:52:05;3.37;;;1.40;;
17079;SDS011;8655;57.106;-2.088;2023-04-15T02:54:31;2.40;;;1.37;;
17079;SDS011;8655;57.106;-2.088;2023-04-15T02:56:58;2.43;;;1.30;;
17079;SDS011;8655;57.106;-2.088;2023-04-15T02:59:24;3.37;;;1.47;;
17079;SDS011;8655;57.106;-2.088;2023-04-15T03:01:49;2.00;;;1.37;;
17079;SDS011;8655;57.106;-2.088;2023-04-15T03:04:15;2.33;;;1.47;;
17079;SDS011;8655;57.106;-2.088;2023-04-15T03:06:41;3.13;;;1.60;;
17079;SDS011;8655;57.106;-2.088;2023-04-15T03:09:06;1.80;;;1.30;;
17079;SDS011;8655;57.106;-2.088;2023-04-15T03:11:32;1.83;;;1.30;;
17079;SDS011;8655;57.106;-2.088;2023-04-15T03:13:59;2.47;;;1.47;;
17079;SDS011;8655;57.106;-2.088;2023-04-15T03:16:25;3.13;;;1.40;;
17079;SDS011;8655;57.106;-2.088;2023-04-15T03:18:51;1.70;;;1.40;;
17079;SDS011;8655;57.106;-2.088;2023-04-15T03:21:16;2.97;;;1.30;;
17079;SDS011;8655;57.106;-2.088;2023-04-15T03:23:43;2.10;;;1.43;;
17079;SDS011;8655;57.106;-2.088;2023-04-15T03:26:10;2.50;;;1.33;;
17079;SDS011;8655;57.106;-2.088;2023-04-15T03:28:49;1.93;;;1.30;;
17079;SDS011;8655;57.106;-2.088;2023-04-15T03:31:14;2.07;;;1.40;;
17079;SDS011;8655;57.106;-2.088;2023-04-15T03:33:40;1.97;;;1.20;;
17079;SDS011;8655;57.106;-2.088;2023-04-15T03:36:05;3.70;;;1.70;;
17079;SDS011;8655;57.106;-2.088;2023-04-15T03:38:31;2.70;;;1.50;;
17079;SDS011;8655;57.106;-2.088;2023-04-15T03:40:57;2.97;;;1.20;;
17079;SDS011;8655;57.106;-2.088;2023-04-15T03:43:22;2.67;;;1.30;;
17079;SDS011;8655;57.106;-2.088;2023-04-15T03:45:48;1.73;;;1.13;;
17079;SDS011;8655;57.106;-2.088;2023-04-15T03:48:14;2.47;;;1.50;;
17079;SDS011;8655;57.106;-2.088;2023-04-15T03:50:39;2.17;;;1.27;;
17079;SDS011;8655;57.106;-2.088;2023-04-15T03:53:05;1.80;;;1.30;;
17079;SDS011;8655;57.106;-2.088;2023-04-15T03:55:31;1.93;;;1.30;;
17079;SDS011;8655;57.106;-2.088;2023-04-15T03:57:56;1.73;;;1.40;;
17079;SDS011;8655;57.106;-2.088;2023-04-15T04:00:22;2.50;;;1.37;;
17079;SDS011;8655;57.106;-2.088;2023-04-15T04:02:48;1.93;;;1.30;;
17079;SDS011;8655;57.106;-2.088;2023-04-15T04:05:13;2.13;;;1.40;;
17079;SDS011;8655;57.106;-2.088;2023-04-15T04:07:39;2.27;;;1.40;;
17079;SDS011;8655;57.106;-2.088;2023-04-15T04:10:05;1.60;;;1.30;;
17079;SDS011;8655;57.106;-2.088;2023-04-15T04:12:31;2.10;;;1.40;;
17079;SDS011;8655;57.106;-2.088;2023-04-15T04:14:57;1.93;;;1.60;;
17079;SDS011;8655;57.106;-2.088;2023-04-15T04:17:23;2.43;;;1.30;;
17079;SDS011;8655;57.106;-2.088;2023-04-15T04:19:48;2.43;;;1.33;;
17079;SDS011;8655;57.106;-2.088;2023-04-15T04:22:14;1.40;;;1.10;;
17079;SDS011;8655;57.106;-2.088;2023-04-15T04:24:40;2.63;;;1.70;;
17079;SDS011;8655;57.106;-2.088;2023-04-15T04:27:05;1.50;;;1.10;;
17079;SDS011;8655;57.106;-2.088;2023-04-15T04:29:31;2.00;;;1.50;;
17079;SDS011;8655;57.106;-2.088;2023-04-15T04:31:57;2.53;;;1.60;;
17079;SDS011;8655;57.106;-2.088;2023-04-15T04:34:22;1.90;;;1.63;;
17079;SDS011;8655;57.106;-2.088;2023-04-15T04:36:48;2.30;;;1.60;;
17079;SDS011;8655;57.106;-2.088;2023-04-15T04:39:13;1.57;;;1.30;;
17079;SDS011;8655;57.106;-2.088;2023-04-15T04:41:39;1.60;;;1.23;;
17079;SDS011;8655;57.106;-2.088;2023-04-15T04:44:05;1.77;;;1.53;;
17079;SDS011;8655;57.106;-2.088;2023-04-15T04:46:31;2.13;;;1.43;;
17079;SDS011;8655;57.106;-2.088;2023-04-15T04:48:57;2.50;;;1.50;;
17079;SDS011;8655;57.106;-2.088;2023-04-15T04:51:22;1.80;;;1.23;;
17079;SDS011;8655;57.106;-2.088;2023-04-15T04:53:48;2.63;;;1.67;;
17079;SDS011;8655;57.106;-2.088;2023-04-15T04:56:14;1.87;;;1.60;;
17079;SDS011;8655;57.106;-2.088;2023-04-15T04:58:40;2.07;;;1.47;;
17079;SDS011;8655;57.106;-2.088;2023-04-15T05:01:06;2.23;;;1.60;;
17079;SDS011;8655;57.106;-2.088;2023-04-15T05:03:32;2.03;;;1.50;;
17079;SDS011;8655;57.106;-2.088;2023-04-15T05:05:57;2.80;;;2.00;;
17079;SDS011;8655;57.106;-2.088;2023-04-15T05:08:23;2.53;;;1.90;;
17079;SDS011;8655;57.106;-2.088;2023-04-15T05:10:49;1.60;;;1.50;;
17079;SDS011;8655;57.106;-2.088;2023-04-15T05:13:15;2.30;;;1.60;;
17079;SDS011;8655;57.106;-2.088;2023-04-15T05:15:40;2.70;;;2.03;;
17079;SDS011;8655;57.106;-2.088;2023-04-15T05:18:07;2.63;;;2.00;;
17079;SDS011;8655;57.106;-2.088;2023-04-15T05:20:32;3.30;;;2.53;;
17079;SDS011;8655;57.106;-2.088;2023-04-15T05:22:58;2.50;;;2.20;;
17079;SDS011;8655;57.106;-2.088;2023-04-15T05:25:24;3.13;;;2.40;;
17079;SDS011;8655;57.106;-2.088;2023-04-15T05:27:50;3.60;;;2.90;;
17079;SDS011;8655;57.106;-2.088;2023-04-15T05:30:16;5.03;;;2.83;;
17079;SDS011;8655;57.106;-2.088;2023-04-15T05:32:41;3.90;;;2.60;;
17079;SDS011;8655;57.106;-2.088;2023-04-15T05:35:07;4.00;;;2.90;;
17079;SDS011;8655;57.106;-2.088;2023-04-15T05:37:33;3.70;;;3.20;;
17079;SDS011;8655;57.106;-2.088;2023-04-15T05:39:58;4.03;;;3.20;;
17079;SDS011;8655;57.106;-2.088;2023-04-15T05:42:24;4.13;;;3.07;;
17079;SDS011;8655;57.106;-2.088;2023-04-15T05:44:49;4.23;;;3.00;;
17079;SDS011;8655;57.106;-2.088;2023-04-15T05:47:15;3.57;;;2.80;;
17079;SDS011;8655;57.106;-2.088;2023-04-15T05:49:41;3.80;;;2.77;;
17079;SDS011;8655;57.106;-2.088;2023-04-15T05:52:07;3.37;;;2.73;;
17079;SDS011;8655;57.106;-2.088;2023-04-15T05:54:32;4.10;;;2.90;;
17079;SDS011;8655;57.106;-2.088;2023-04-15T05:56:58;4.03;;;3.30;;
17079;SDS011;8655;57.106;-2.088;2023-04-15T05:59:24;3.67;;;2.80;;
17079;SDS011;8655;57.106;-2.088;2023-04-15T06:01:49;4.13;;;2.83;;
17079;SDS011;8655;57.106;-2.088;2023-04-15T06:04:16;3.47;;;2.60;;
17079;SDS011;8655;57.106;-2.088;2023-04-15T06:06:41;2.83;;;2.50;;
17079;SDS011;8655;57.106;-2.088;2023-04-15T06:09:07;2.97;;;2.33;;
17079;SDS011;8655;57.106;-2.088;2023-04-15T06:11:33;3.43;;;2.57;;
17079;SDS011;8655;57.106;-2.088;2023-04-15T06:13:59;3.13;;;2.50;;
17079;SDS011;8655;57.106;-2.088;2023-04-15T06:16:24;2.50;;;2.27;;
17079;SDS011;8655;57.106;-2.088;2023-04-15T06:18:50;2.90;;;2.50;;
17079;SDS011;8655;57.106;-2.088;2023-04-15T06:21:15;2.87;;;2.17;;
17079;SDS011;8655;57.106;-2.088;2023-04-15T06:23:41;3.20;;;2.37;;
17079;SDS011;8655;57.106;-2.088;2023-04-15T06:26:07;2.93;;;2.37;;
17079;SDS011;8655;57.106;-2.088;2023-04-15T06:28:33;2.93;;;2.50;;
17079;SDS011;8655;57.106;-2.088;2023-04-15T06:30:58;3.53;;;2.53;;
17079;SDS011;8655;57.106;-2.088;2023-04-15T06:33:25;2.20;;;2.00;;
17079;SDS011;8655;57.106;-2.088;2023-04-15T06:35:51;2.13;;;1.93;;
17079;SDS011;8655;57.106;-2.088;2023-04-15T06:38:16;3.03;;;2.37;;
17079;SDS011;8655;57.106;-2.088;2023-04-15T06:40:42;2.50;;;2.07;;
17079;SDS011;8655;57.106;-2.088;2023-04-15T06:43:08;2.33;;;1.90;;
17079;SDS011;8655;57.106;-2.088;2023-04-15T06:45:34;2.20;;;2.00;;
17079;SDS011;8655;57.106;-2.088;2023-04-15T06:48:00;2.10;;;1.80;;
17079;SDS011;8655;57.106;-2.088;2023-04-15T06:50:25;2.53;;;1.90;;
17079;SDS011;8655;57.106;-2.088;2023-04-15T06:52:52;2.30;;;2.10;;
17079;SDS011;8655;57.106;-2.088;2023-04-15T06:55:18;2.07;;;1.80;;
17079;SDS011;8655;57.106;-2.088;2023-04-15T06:57:44;2.00;;;1.80;;
17079;SDS011;8655;57.106;-2.088;2023-04-15T07:00:10;2.80;;;1.90;;
17079;SDS011;8655;57.106;-2.088;2023-04-15T07:02:36;2.63;;;2.13;;
17079;SDS011;8655;57.106;-2.088;2023-04-15T07:05:02;2.33;;;1.93;;
17079;SDS011;8655;57.106;-2.088;2023-04-15T07:07:28;2.80;;;2.10;;
17079;SDS011;8655;57.106;-2.088;2023-04-15T07:09:54;2.53;;;2.13;;
17079;SDS011;8655;57.106;-2.088;2023-04-15T07:12:20;3.10;;;1.87;;
17079;SDS011;8655;57.106;-2.088;2023-04-15T07:14:46;1.67;;;1.58;;
17079;SDS011;8655;57.106;-2.088;2023-04-15T07:17:11;2.10;;;1.70;;
17079;SDS011;8655;57.106;-2.088;2023-04-15T07:19:37;2.15;;;1.83;;
17079;SDS011;8655;57.106;-2.088;2023-04-15T07:22:03;2.40;;;1.87;;
17079;SDS011;8655;57.106;-2.088;2023-04-15T07:24:29;2.58;;;1.80;;
17079;SDS011;8655;57.106;-2.088;2023-04-15T07:26:55;1.97;;;1.77;;
17079;SDS011;8655;57.106;-2.088;2023-04-15T07:29:22;2.17;;;1.77;;
17079;SDS011;8655;57.106;-2.088;2023-04-15T07:31:48;2.20;;;1.80;;
17079;SDS011;8655;57.106;-2.088;2023-04-15T07:34:13;1.63;;;1.53;;
17079;SDS011;8655;57.106;-2.088;2023-04-15T07:36:40;2.53;;;1.83;;
17079;SDS011;8655;57.106;-2.088;2023-04-15T07:39:06;2.08;;;1.63;;
17079;SDS011;8655;57.106;-2.088;2023-04-15T07:41:32;2.43;;;1.70;;
17079;SDS011;8655;57.106;-2.088;2023-04-15T07:43:57;1.70;;;1.60;;
17079;SDS011;8655;57.106;-2.088;2023-04-15T07:46:23;1.93;;;1.73;;
17079;SDS011;8655;57.106;-2.088;2023-04-15T07:48:51;2.10;;;1.60;;
17079;SDS011;8655;57.106;-2.088;2023-04-15T07:51:17;2.17;;;1.90;;
17079;SDS011;8655;57.106;-2.088;2023-04-15T07:53:45;2.20;;;1.77;;
17079;SDS011;8655;57.106;-2.088;2023-04-15T07:56:14;1.90;;;1.60;;
17079;SDS011;8655;57.106;-2.088;2023-04-15T07:58:40;2.37;;;1.90;;
17079;SDS011;8655;57.106;-2.088;2023-04-15T08:01:06;1.83;;;1.63;;
17079;SDS011;8655;57.106;-2.088;2023-04-15T08:03:32;1.97;;;1.80;;
17079;SDS011;8655;57.106;-2.088;2023-04-15T08:05:58;1.60;;;1.50;;
17079;SDS011;8655;57.106;-2.088;2023-04-15T08:08:24;2.03;;;1.80;;
17079;SDS011;8655;57.106;-2.088;2023-04-15T08:10:50;1.90;;;1.70;;
17079;SDS011;8655;57.106;-2.088;2023-04-15T08:13:16;1.60;;;1.50;;
17079;SDS011;8655;57.106;-2.088;2023-04-15T08:15:42;2.28;;;1.70;;
17079;SDS011;8655;57.106;-2.088;2023-04-15T08:18:07;2.20;;;1.80;;
17079;SDS011;8655;57.106;-2.088;2023-04-15T08:20:33;1.83;;;1.70;;
17079;SDS011;8655;57.106;-2.088;2023-04-15T08:22:59;1.70;;;1.60;;
17079;SDS011;8655;57.106;-2.088;2023-04-15T08:25:25;2.53;;;1.70;;
17079;SDS011;8655;57.106;-2.088;2023-04-15T08:27:54;1.60;;;1.50;;
17079;SDS011;8655;57.106;-2.088;2023-04-15T08:30:20;2.13;;;1.70;;
17079;SDS011;8655;57.106;-2.088;2023-04-15T08:32:45;1.67;;;1.50;;
17079;SDS011;8655;57.106;-2.088;2023-04-15T08:35:11;1.97;;;1.77;;
17079;SDS011;8655;57.106;-2.088;2023-04-15T08:37:37;1.53;;;1.43;;
17079;SDS011;8655;57.106;-2.088;2023-04-15T08:40:03;2.10;;;1.73;;
17079;SDS011;8655;57.106;-2.088;2023-04-15T08:42:30;1.60;;;1.40;;
17079;SDS011;8655;57.106;-2.088;2023-04-15T08:44:58;1.53;;;1.40;;
17079;SDS011;8655;57.106;-2.088;2023-04-15T08:47:25;1.97;;;1.73;;
17079;SDS011;8655;57.106;-2.088;2023-04-15T08:49:55;2.10;;;1.40;;
17079;SDS011;8655;57.106;-2.088;2023-04-15T08:52:24;2.00;;;1.80;;
17079;SDS011;8655;57.106;-2.088;2023-04-15T08:54:50;2.20;;;1.57;;
17079;SDS011;8655;57.106;-2.088;2023-04-15T08:57:22;1.77;;;1.60;;
17079;SDS011;8655;57.106;-2.088;2023-04-15T08:59:55;2.13;;;1.50;;
17079;SDS011;8655;57.106;-2.088;2023-04-15T09:02:22;1.77;;;1.33;;
17079;SDS011;8655;57.106;-2.088;2023-04-15T09:04:48;1.90;;;1.43;;
17079;SDS011;8655;57.106;-2.088;2023-04-15T09:07:14;1.67;;;1.57;;
17079;SDS011;8655;57.106;-2.088;2023-04-15T09:09:40;2.60;;;1.43;;
17079;SDS011;8655;57.106;-2.088;2023-04-15T09:12:06;2.67;;;1.50;;
17079;SDS011;8655;57.106;-2.088;2023-04-15T09:14:32;2.43;;;1.60;;
17079;SDS011;8655;57.106;-2.088;2023-04-15T09:17:00;1.50;;;1.40;;
17079;SDS011;8655;57.106;-2.088;2023-04-15T09:19:27;1.67;;;1.40;;
17079;SDS011;8655;57.106;-2.088;2023-04-15T09:21:54;2.70;;;1.90;;
17079;SDS011;8655;57.106;-2.088;2023-04-15T09:24:21;1.40;;;1.30;;
17079;SDS011;8655;57.106;-2.088;2023-04-15T09:26:47;1.73;;;1.53;;
17079;SDS011;8655;57.106;-2.088;2023-04-15T09:29:17;1.73;;;1.33;;
17079;SDS011;8655;57.106;-2.088;2023-04-15T09:31:43;2.07;;;1.60;;
17079;SDS011;8655;57.106;-2.088;2023-04-15T09:34:08;2.10;;;1.57;;
17079;SDS011;8655;57.106;-2.088;2023-04-15T09:36:50;1.90;;;1.47;;
17079;SDS011;8655;57.106;-2.088;2023-04-15T09:39:18;1.57;;;1.40;;
17079;SDS011;8655;57.106;-2.088;2023-04-15T09:41:44;1.57;;;1.43;;
17079;SDS011;8655;57.106;-2.088;2023-04-15T09:44:22;2.10;;;1.43;;
17079;SDS011;8655;57.106;-2.088;2023-04-15T09:46:49;2.20;;;1.60;;
17079;SDS011;8655;57.106;-2.088;2023-04-15T09:49:15;2.03;;;1.53;;
17079;SDS011;8655;57.106;-2.088;2023-04-15T09:51:42;1.87;;;1.30;;
17079;SDS011;8655;57.106;-2.088;2023-04-15T09:54:08;1.70;;;1.50;;
17079;SDS011;8655;57.106;-2.088;2023-04-15T09:56:34;1.57;;;1.40;;
17079;SDS011;8655;57.106;-2.088;2023-04-15T09:59:07;1.97;;;1.50;;
17079;SDS011;8655;57.106;-2.088;2023-04-15T10:01:33;2.17;;;1.30;;
17079;SDS011;8655;57.106;-2.088;2023-04-15T10:04:03;2.30;;;1.50;;
17079;SDS011;8655;57.106;-2.088;2023-04-15T10:06:30;2.67;;;1.60;;
17079;SDS011;8655;57.106;-2.088;2023-04-15T10:08:57;2.90;;;1.70;;
17079;SDS011;8655;57.106;-2.088;2023-04-15T10:11:23;1.97;;;1.40;;
17079;SDS011;8655;57.106;-2.088;2023-04-15T10:13:52;1.60;;;1.50;;
17079;SDS011;8655;57.106;-2.088;2023-04-15T10:16:20;2.27;;;1.37;;
17079;SDS011;8655;57.106;-2.088;2023-04-15T10:18:48;1.40;;;1.30;;
17079;SDS011;8655;57.106;-2.088;2023-04-15T10:21:18;1.83;;;1.53;;
17079;SDS011;8655;57.106;-2.088;2023-04-15T10:23:47;1.77;;;1.50;;
17079;SDS011;8655;57.106;-2.088;2023-04-15T10:26:14;1.97;;;1.50;;
17079;SDS011;8655;57.106;-2.088;2023-04-15T10:28:41;1.70;;;1.40;;
17079;SDS011;8655;57.106;-2.088;2023-04-15T10:31:07;1.63;;;1.53;;
17079;SDS011;8655;57.106;-2.088;2023-04-15T10:33:40;1.70;;;1.40;;
17079;SDS011;8655;57.106;-2.088;2023-04-15T10:36:07;1.50;;;1.40;;
17079;SDS011;8655;57.106;-2.088;2023-04-15T10:38:34;1.60;;;1.50;;
17079;SDS011;8655;57.106;-2.088;2023-04-15T10:44:03;3.77;;;1.47;;
17079;SDS011;8655;57.106;-2.088;2023-04-15T10:46:36;1.63;;;1.47;;
17079;SDS011;8655;57.106;-2.088;2023-04-15T10:49:16;1.33;;;1.23;;
17079;SDS011;8655;57.106;-2.088;2023-04-15T10:51:52;2.70;;;1.70;;
17079;SDS011;8655;57.106;-2.088;2023-04-15T10:57:06;1.70;;;1.20;;
17079;SDS011;8655;57.106;-2.088;2023-04-15T10:59:38;2.30;;;1.57;;
17079;SDS011;8655;57.106;-2.088;2023-04-15T11:03:08;2.37;;;1.60;;
17079;SDS011;8655;57.106;-2.088;2023-04-15T11:05:09;2.63;;;1.60;;
17079;SDS011;8655;57.106;-2.088;2023-04-15T11:12:42;1.50;;;1.40;;
17079;SDS011;8655;57.106;-2.088;2023-04-15T11:16:11;1.70;;;1.47;;
17079;SDS011;8655;57.106;-2.088;2023-04-15T11:20:42;3.13;;;1.40;;
17079;SDS011;8655;57.106;-2.088;2023-04-15T11:23:09;1.97;;;1.40;;
17079;SDS011;8655;57.106;-2.088;2023-04-15T11:25:35;1.93;;;1.40;;
17079;SDS011;8655;57.106;-2.088;2023-04-15T11:28:04;1.60;;;1.30;;
17079;SDS011;8655;57.106;-2.088;2023-04-15T11:30:32;1.60;;;1.30;;
17079;SDS011;8655;57.106;-2.088;2023-04-15T11:32:59;1.80;;;1.33;;
17079;SDS011;8655;57.106;-2.088;2023-04-15T11:35:26;2.00;;;1.43;;
17079;SDS011;8655;57.106;-2.088;2023-04-15T11:37:52;1.97;;;1.10;;
17079;SDS011;8655;57.106;-2.088;2023-04-15T11:40:22;2.23;;;1.10;;
17079;SDS011;8655;57.106;-2.088;2023-04-15T11:43:05;2.13;;;1.27;;
17079;SDS011;8655;57.106;-2.088;2023-04-15T11:45:36;2.13;;;1.50;;
17079;SDS011;8655;57.106;-2.088;2023-04-15T11:48:09;2.10;;;1.47;;
17079;SDS011;8655;57.106;-2.088;2023-04-15T11:50:37;1.40;;;1.30;;
17079;SDS011;8655;57.106;-2.088;2023-04-15T11:53:08;2.37;;;1.67;;
17079;SDS011;8655;57.106;-2.088;2023-04-15T11:55:48;1.42;;;1.30;;
17079;SDS011;8655;57.106;-2.088;2023-04-15T11:58:19;2.10;;;1.43;;
17079;SDS011;8655;57.106;-2.088;2023-04-15T12:00:49;1.50;;;1.30;;
17079;SDS011;8655;57.106;-2.088;2023-04-15T12:03:29;1.93;;;1.50;;
17079;SDS011;8655;57.106;-2.088;2023-04-15T12:11:33;2.07;;;1.33;;
17079;SDS011;8655;57.106;-2.088;2023-04-15T12:16:57;2.20;;;1.43;;
17079;SDS011;8655;57.106;-2.088;2023-04-15T12:22:00;1.53;;;1.10;;
17079;SDS011;8655;57.106;-2.088;2023-04-15T12:24:28;1.93;;;1.33;;
17079;SDS011;8655;57.106;-2.088;2023-04-15T12:26:56;1.67;;;1.20;;
17079;SDS011;8655;57.106;-2.088;2023-04-15T12:29:26;2.27;;;1.23;;
17079;SDS011;8655;57.106;-2.088;2023-04-15T12:31:56;1.90;;;1.40;;
17079;SDS011;8655;57.106;-2.088;2023-04-15T12:34:28;1.40;;;1.00;;
17079;SDS011;8655;57.106;-2.088;2023-04-15T12:37:00;1.87;;;1.23;;
17079;SDS011;8655;57.106;-2.088;2023-04-15T12:39:28;2.20;;;1.30;;
17079;SDS011;8655;57.106;-2.088;2023-04-15T12:41:56;3.63;;;1.50;;
17079;SDS011;8655;57.106;-2.088;2023-04-15T12:44:24;1.93;;;1.40;;
17079;SDS011;8655;57.106;-2.088;2023-04-15T12:46:50;2.23;;;1.20;;
17079;SDS011;8655;57.106;-2.088;2023-04-15T12:49:17;1.93;;;1.30;;
17079;SDS011;8655;57.106;-2.088;2023-04-15T12:51:50;1.97;;;1.30;;
17079;SDS011;8655;57.106;-2.088;2023-04-15T12:54:17;2.27;;;1.30;;
17079;SDS011;8655;57.106;-2.088;2023-04-15T12:56:43;4.33;;;1.30;;
17079;SDS011;8655;57.106;-2.088;2023-04-15T12:59:10;1.73;;;1.50;;
17079;SDS011;8655;57.106;-2.088;2023-04-15T13:01:36;1.97;;;1.50;;
17079;SDS011;8655;57.106;-2.088;2023-04-15T13:04:02;2.27;;;1.30;;
17079;SDS011;8655;57.106;-2.088;2023-04-15T13:06:28;2.27;;;1.30;;
17079;SDS011;8655;57.106;-2.088;2023-04-15T13:08:56;2.00;;;1.27;;
17079;SDS011;8655;57.106;-2.088;2023-04-15T13:11:23;2.53;;;1.40;;
17079;SDS011;8655;57.106;-2.088;2023-04-15T13:13:49;1.63;;;1.27;;
17079;SDS011;8655;57.106;-2.088;2023-04-15T13:16:16;2.50;;;1.40;;
17079;SDS011;8655;57.106;-2.088;2023-04-15T13:18:43;2.13;;;1.30;;
17079;SDS011;8655;57.106;-2.088;2023-04-15T13:21:10;2.00;;;1.30;;
17079;SDS011;8655;57.106;-2.088;2023-04-15T13:23:36;2.37;;;1.40;;
17079;SDS011;8655;57.106;-2.088;2023-04-15T13:26:02;2.53;;;1.30;;
17079;SDS011;8655;57.106;-2.088;2023-04-15T13:28:28;2.50;;;1.33;;
17079;SDS011;8655;57.106;-2.088;2023-04-15T13:30:53;2.37;;;1.30;;
17079;SDS011;8655;57.106;-2.088;2023-04-15T13:33:19;2.47;;;1.40;;
17079;SDS011;8655;57.106;-2.088;2023-04-15T13:35:45;1.63;;;1.30;;
17079;SDS011;8655;57.106;-2.088;2023-04-15T13:38:11;3.50;;;1.40;;
17079;SDS011;8655;57.106;-2.088;2023-04-15T13:40:36;1.93;;;1.13;;
17079;SDS011;8655;57.106;-2.088;2023-04-15T13:43:02;2.43;;;1.33;;
17079;SDS011;8655;57.106;-2.088;2023-04-15T13:45:28;2.37;;;1.33;;
17079;SDS011;8655;57.106;-2.088;2023-04-15T13:47:55;2.57;;;1.23;;
17079;SDS011;8655;57.106;-2.088;2023-04-15T13:50:23;4.20;;;1.63;;
17079;SDS011;8655;57.106;-2.088;2023-04-15T13:52:49;2.90;;;1.50;;
17079;SDS011;8655;57.106;-2.088;2023-04-15T13:55:14;4.13;;;1.20;;
17079;SDS011;8655;57.106;-2.088;2023-04-15T13:57:40;2.37;;;1.30;;
17079;SDS011;8655;57.106;-2.088;2023-04-15T14:00:06;3.07;;;1.30;;
17079;SDS011;8655;57.106;-2.088;2023-04-15T14:02:32;2.23;;;1.30;;
17079;SDS011;8655;57.106;-2.088;2023-04-15T14:04:58;2.40;;;1.53;;
17079;SDS011;8655;57.106;-2.088;2023-04-15T14:07:23;1.90;;;1.20;;
17079;SDS011;8655;57.106;-2.088;2023-04-15T14:09:49;1.93;;;1.10;;
17079;SDS011;8655;57.106;-2.088;2023-04-15T14:12:15;3.30;;;1.33;;
17079;SDS011;8655;57.106;-2.088;2023-04-15T14:14:41;2.37;;;1.20;;
17079;SDS011;8655;57.106;-2.088;2023-04-15T14:17:06;3.80;;;1.60;;
17079;SDS011;8655;57.106;-2.088;2023-04-15T14:19:33;2.17;;;1.40;;
17079;SDS011;8655;57.106;-2.088;2023-04-15T14:21:59;2.70;;;1.30;;
17079;SDS011;8655;57.106;-2.088;2023-04-15T14:24:25;3.20;;;1.33;;
17079;SDS011;8655;57.106;-2.088;2023-04-15T14:26:51;2.57;;;1.40;;
17079;SDS011;8655;57.106;-2.088;2023-04-15T14:29:17;2.40;;;1.30;;
17079;SDS011;8655;57.106;-2.088;2023-04-15T14:31:43;1.60;;;1.20;;
17079;SDS011;8655;57.106;-2.088;2023-04-15T14:34:09;3.60;;;1.40;;
17079;SDS011;8655;57.106;-2.088;2023-04-15T14:36:35;2.90;;;1.40;;
17079;SDS011;8655;57.106;-2.088;2023-04-15T14:39:02;2.20;;;1.30;;
17079;SDS011;8655;57.106;-2.088;2023-04-15T14:41:28;2.90;;;1.43;;
17079;SDS011;8655;57.106;-2.088;2023-04-15T14:43:54;3.00;;;1.20;;
17079;SDS011;8655;57.106;-2.088;2023-04-15T14:46:20;2.33;;;1.20;;
17079;SDS011;8655;57.106;-2.088;2023-04-15T14:48:46;1.90;;;1.23;;
17079;SDS011;8655;57.106;-2.088;2023-04-15T14:51:12;2.33;;;1.20;;
17079;SDS011;8655;57.106;-2.088;2023-04-15T14:53:38;2.23;;;1.23;;
17079;SDS011;8655;57.106;-2.088;2023-04-15T14:56:04;1.80;;;1.33;;
17079;SDS011;8655;57.106;-2.088;2023-04-15T14:58:30;2.40;;;1.50;;
17079;SDS011;8655;57.106;-2.088;2023-04-15T15:00:57;3.07;;;1.30;;
17079;SDS011;8655;57.106;-2.088;2023-04-15T15:03:23;1.90;;;1.23;;
17079;SDS011;8655;57.106;-2.088;2023-04-15T15:05:48;2.37;;;1.40;;
17079;SDS011;8655;57.106;-2.088;2023-04-15T15:08:14;2.77;;;1.40;;
17079;SDS011;8655;57.106;-2.088;2023-04-15T15:10:40;4.03;;;1.50;;